createdAt,value
2022-09-26T00:00:36.707Z,10.13
2022-09-26T00:03:03.372Z,8.15
2022-09-26T00:05:33.859Z,6.20
2022-09-26T00:08:00.668Z,6.57
2022-09-26T00:10:27.389Z,7.97
2022-09-26T00:12:55.470Z,6.63
2022-09-26T00:15:22.787Z,5.72
2022-09-26T00:17:49.560Z,7.18
2022-09-26T00:20:16.744Z,7.93
2022-09-26T00:22:43.467Z,7.63
2022-09-26T00:25:10.103Z,5.05
2022-09-26T00:27:36.835Z,6.53
2022-09-26T00:30:03.734Z,9.55
2022-09-26T00:32:30.306Z,7.63
2022-09-26T00:34:56.917Z,7.75
2022-09-26T00:37:23.535Z,6.60
2022-09-26T00:39:50.163Z,12.18
2022-09-26T00:42:16.767Z,11.15
2022-09-26T00:44:52.295Z,8.60
2022-09-26T00:47:49.615Z,6.13
2022-09-26T00:50:28.760Z,9.57
2022-09-26T00:53:07.328Z,8.98
2022-09-26T00:55:37.747Z,7.78
2022-09-26T00:58:10.968Z,6.63
2022-09-26T01:00:42.376Z,9.60
2022-09-26T01:03:09.328Z,9.07
2022-09-26T01:05:36.831Z,9.32
2022-09-26T01:08:05.165Z,11.35
2022-09-26T01:10:32.828Z,11.18
2022-09-26T01:13:01.902Z,13.50
2022-09-26T01:15:28.683Z,13.55
2022-09-26T01:17:55.850Z,12.70
2022-09-26T01:20:52.889Z,10.32
2022-09-26T01:23:41.296Z,11.50
2022-09-26T01:26:10.910Z,13.77
2022-09-26T01:29:15.236Z,13.85
2022-09-26T01:32:08.267Z,12.07
2022-09-26T01:34:48.679Z,14.40
2022-09-26T01:37:38.033Z,14.25
2022-09-26T01:40:13.727Z,15.32
2022-09-26T01:45:26.006Z,12.40
2022-09-26T01:48:05.774Z,11.25
2022-09-26T01:51:03.490Z,15.25
2022-09-26T01:53:55.431Z,16.85
2022-09-26T01:56:32.324Z,15.07
2022-09-26T01:59:11.184Z,12.95
2022-09-26T02:01:42.333Z,13.50
2022-09-26T02:04:13.343Z,10.73
2022-09-26T02:06:50.879Z,11.70
2022-09-26T02:09:24.052Z,11.20
2022-09-26T02:11:53.106Z,11.45
2022-09-26T02:14:29.715Z,11.27
2022-09-26T02:17:01.636Z,10.85
2022-09-26T02:19:35.152Z,11.77
2022-09-26T02:22:02.468Z,9.18
2022-09-26T02:24:29.325Z,9.90
2022-09-26T02:26:56.405Z,13.43
2022-09-26T02:29:23.889Z,14.43
2022-09-26T02:32:08.984Z,16.83
2022-09-26T02:34:35.686Z,11.52
2022-09-26T02:37:02.285Z,9.95
2022-09-26T02:39:28.920Z,8.90
2022-09-26T02:42:17.917Z,6.40
2022-09-26T02:45:05.516Z,12.30
2022-09-26T02:48:01.103Z,8.40
2022-09-26T02:50:40.036Z,10.23
2022-09-26T02:53:36.986Z,11.13
2022-09-26T02:56:09.055Z,10.00
2022-09-26T02:59:06.629Z,10.52
2022-09-26T03:01:43.830Z,9.02
2022-09-26T03:04:25.581Z,8.82
2022-09-26T03:06:58.238Z,10.52
2022-09-26T03:09:26.261Z,12.77
2022-09-26T03:11:54.501Z,8.77
2022-09-26T03:14:21.189Z,11.65
2022-09-26T03:16:50.305Z,9.38
2022-09-26T03:19:28.483Z,9.18
2022-09-26T03:21:55.451Z,10.35
2022-09-26T03:24:24.163Z,11.60
2022-09-26T03:26:51.163Z,9.02
2022-09-26T03:29:18.906Z,9.65
2022-09-26T03:31:46.032Z,10.20
2022-09-26T03:34:12.745Z,9.45
2022-09-26T03:36:39.405Z,7.43
2022-09-26T03:39:06.061Z,15.48
2022-09-26T03:41:32.792Z,9.57
2022-09-26T03:43:59.367Z,10.73
2022-09-26T03:46:26.237Z,8.75
2022-09-26T03:48:52.880Z,8.25
2022-09-26T03:51:19.481Z,10.30
2022-09-26T03:53:46.223Z,11.98
2022-09-26T03:56:15.617Z,7.35
2022-09-26T03:58:42.571Z,8.50
2022-09-26T04:01:12.012Z,11.20
2022-09-26T04:03:40.757Z,9.45
2022-09-26T04:06:08.997Z,8.27
2022-09-26T04:08:40.533Z,9.20
2022-09-26T04:11:10.136Z,11.00
2022-09-26T04:13:51.378Z,12.85
2022-09-26T04:16:20.618Z,12.50
2022-09-26T04:18:48.018Z,7.40
2022-09-26T04:21:15.500Z,9.98
2022-09-26T04:23:43.726Z,12.00
2022-09-26T04:26:20.133Z,12.60
2022-09-26T04:28:50.464Z,8.77
2022-09-26T04:31:17.229Z,9.07
2022-09-26T04:33:43.997Z,8.73
2022-09-26T04:36:14.585Z,12.40
2022-09-26T04:38:41.601Z,9.10
2022-09-26T04:41:10.465Z,10.85
2022-09-26T04:43:37.923Z,13.68
2022-09-26T04:46:20.832Z,9.93
2022-09-26T04:48:53.090Z,14.15
2022-09-26T04:51:20.960Z,18.40
2022-09-26T04:53:47.947Z,11.93
2022-09-26T04:56:15.788Z,8.73
2022-09-26T04:58:43.224Z,11.27
2022-09-26T05:01:12.615Z,14.00
2022-09-26T05:03:39.632Z,12.95
2022-09-26T05:06:07.258Z,13.75
2022-09-26T05:08:33.977Z,12.35
2022-09-26T05:11:00.705Z,12.32
2022-09-26T05:13:27.980Z,10.60
2022-09-26T05:15:55.227Z,11.45
2022-09-26T05:18:22.928Z,13.20
2022-09-26T05:20:50.365Z,12.98
2022-09-26T05:23:19.582Z,11.70
2022-09-26T05:25:46.248Z,14.43
2022-09-26T05:28:13.193Z,13.75
2022-09-26T05:30:39.873Z,11.73
2022-09-26T05:33:07.394Z,11.73
2022-09-26T05:35:34.216Z,10.18
2022-09-26T05:38:04.943Z,12.35
2022-09-26T05:40:31.794Z,9.88
2022-09-26T05:43:02.539Z,13.95
2022-09-26T05:45:29.169Z,11.57
2022-09-26T05:47:55.816Z,10.23
2022-09-26T05:50:22.485Z,14.10
2022-09-26T05:52:49.137Z,11.30
2022-09-26T05:55:16.187Z,12.10
2022-09-26T05:57:56.915Z,9.93
2022-09-26T06:00:23.679Z,18.77
2022-09-26T06:02:58.241Z,13.23
2022-09-26T06:05:25.539Z,10.68
2022-09-26T06:07:52.949Z,9.90
2022-09-26T06:10:20.536Z,11.13
2022-09-26T06:12:50.807Z,11.85
2022-09-26T06:15:17.838Z,13.38
2022-09-26T06:17:45.014Z,13.43
2022-09-26T06:20:11.717Z,10.48
2022-09-26T06:22:42.237Z,11.25
2022-09-26T06:25:10.126Z,14.13
2022-09-26T06:27:37.443Z,10.82
2022-09-26T06:30:13.247Z,10.13
2022-09-26T06:35:07.517Z,16.83
2022-09-26T06:37:34.188Z,13.77
2022-09-26T06:40:01.032Z,13.00
2022-09-26T06:42:27.688Z,15.13
2022-09-26T06:44:54.354Z,13.15
2022-09-26T06:47:21.151Z,10.50
2022-09-26T06:49:47.752Z,10.10
2022-09-26T06:52:14.525Z,17.63
2022-09-26T06:54:41.613Z,13.73
2022-09-26T06:57:12.803Z,18.20
2022-09-26T06:59:41.466Z,14.05
2022-09-26T07:02:09.262Z,19.23
2022-09-26T07:04:36.049Z,11.32
2022-09-26T07:07:02.721Z,10.77
2022-09-26T07:09:29.419Z,11.32
2022-09-26T07:12:14.077Z,11.70
2022-09-26T07:14:41.957Z,15.75
2022-09-26T07:17:16.518Z,12.75
2022-09-26T07:19:43.666Z,16.13
2022-09-26T07:22:10.790Z,12.82
2022-09-26T07:24:37.441Z,15.77
2022-09-26T07:27:04.124Z,13.75
2022-09-26T07:29:30.731Z,12.93
2022-09-26T07:31:59.117Z,20.08
2022-09-26T07:34:25.824Z,20.33
2022-09-26T07:36:52.675Z,17.98
2022-09-26T07:39:19.331Z,16.98
2022-09-26T07:41:46.297Z,14.45
2022-09-26T07:47:00.726Z,12.80
2022-09-26T07:49:27.507Z,11.23
2022-09-26T07:51:55.892Z,16.25
2022-09-26T07:54:23.994Z,12.25
2022-09-26T07:56:50.717Z,11.90
2022-09-26T07:59:17.480Z,10.15
2022-09-26T08:01:44.255Z,10.63
2022-09-26T08:04:12.015Z,9.32
2022-09-26T08:06:38.730Z,13.45
2022-09-26T08:09:05.594Z,10.73
2022-09-26T08:11:32.282Z,9.30
2022-09-26T08:13:58.914Z,11.68
2022-09-26T08:16:25.631Z,9.35
2022-09-26T08:18:53.926Z,14.93
2022-09-26T08:21:22.067Z,10.07
2022-09-26T08:23:48.850Z,13.40
2022-09-26T08:26:15.514Z,10.45
2022-09-26T08:28:42.232Z,10.63
2022-09-26T08:31:09.056Z,11.18
2022-09-26T08:33:36.995Z,9.88
2022-09-26T08:36:09.172Z,8.25
2022-09-26T08:38:36.472Z,9.20
2022-09-26T08:41:08.930Z,9.25
2022-09-26T08:43:53.336Z,11.32
2022-09-26T08:46:44.010Z,10.85
2022-09-26T08:49:32.190Z,9.48
2022-09-26T08:52:01.116Z,6.78
2022-09-26T08:54:44.370Z,12.85
2022-09-26T08:57:28.382Z,13.77
2022-09-26T08:59:55.172Z,12.20
2022-09-26T09:02:39.271Z,12.02
2022-09-26T09:05:37.379Z,8.40
2022-09-26T09:08:11.312Z,5.68
2022-09-26T09:10:41.049Z,8.45
2022-09-26T09:13:10.814Z,8.48
2022-09-26T09:15:56.974Z,6.38
2022-09-26T09:18:51.745Z,6.80
2022-09-26T09:21:55.982Z,6.07
2022-09-26T09:24:55.313Z,8.68
2022-09-26T09:30:30.726Z,5.88
2022-09-26T09:33:06.492Z,6.60
2022-09-26T09:38:27.895Z,5.57
2022-09-26T09:41:02.663Z,6.75
2022-09-26T09:43:37.364Z,10.80
2022-09-26T09:46:15.041Z,7.20
2022-09-26T09:48:42.331Z,6.35
2022-09-26T09:51:29.931Z,8.52
2022-09-26T09:54:12.108Z,4.03
2022-09-26T09:56:46.170Z,3.67
2022-09-26T09:59:27.623Z,13.82
2022-09-26T10:02:30.138Z,4.03
2022-09-26T10:05:22.625Z,5.43
2022-09-26T10:07:50.216Z,3.42
2022-09-26T10:10:23.517Z,4.43
2022-09-26T10:12:50.819Z,4.85
2022-09-26T10:15:24.014Z,6.60
2022-09-26T10:18:23.088Z,4.22
2022-09-26T10:23:45.318Z,4.28
2022-09-26T10:26:12.726Z,8.75
2022-09-26T10:28:51.332Z,6.50
2022-09-26T10:31:32.865Z,4.47
2022-09-26T10:34:02.524Z,5.03
2022-09-26T10:36:37.272Z,6.35
2022-09-26T10:39:03.956Z,10.60
2022-09-26T10:41:44.713Z,3.58
2022-09-26T10:44:30.540Z,6.63
2022-09-26T10:47:00.080Z,4.35
2022-09-26T10:49:38.307Z,3.88
2022-09-26T10:52:18.618Z,3.15
2022-09-26T10:55:03.694Z,6.93
2022-09-26T10:57:37.807Z,5.97
2022-09-26T11:00:05.896Z,4.25
2022-09-26T11:02:32.971Z,7.47
2022-09-26T11:05:04.396Z,4.03
2022-09-26T11:07:37.478Z,4.45
2022-09-26T11:10:09.685Z,4.80
2022-09-26T11:12:36.445Z,3.88
2022-09-26T11:15:14.321Z,6.07
2022-09-26T11:17:47.372Z,4.43
2022-09-26T11:20:41.143Z,3.67
2022-09-26T11:23:12.640Z,4.43
2022-09-26T11:25:55.594Z,4.55
2022-09-26T11:28:30.345Z,5.72
2022-09-26T11:31:04.804Z,3.15
2022-09-26T11:33:31.454Z,4.65
2022-09-26T11:36:19.702Z,4.95
2022-09-26T11:38:50.459Z,9.02
2022-09-26T11:41:48.172Z,9.68
2022-09-26T11:44:39.660Z,5.75
2022-09-26T11:47:30.970Z,10.02
2022-09-26T11:50:03.483Z,6.13
2022-09-26T11:52:35.993Z,3.60
2022-09-26T11:55:11.959Z,9.82
2022-09-26T11:57:47.613Z,5.18
2022-09-26T12:00:23.632Z,5.80
2022-09-26T12:03:12.944Z,5.88
2022-09-26T12:05:42.611Z,3.65
2022-09-26T12:08:09.227Z,5.32
2022-09-26T12:10:59.750Z,8.05
2022-09-26T12:13:44.688Z,6.35
2022-09-26T12:16:35.327Z,7.07
2022-09-26T12:19:10.461Z,7.53
2022-09-26T12:21:40.808Z,7.45
2022-09-26T12:24:27.771Z,8.52
2022-09-26T12:27:03.608Z,7.57
2022-09-26T12:29:40.012Z,6.25
2022-09-26T12:32:44.470Z,5.10
2022-09-26T12:35:23.262Z,5.88
2022-09-26T12:38:27.884Z,6.60
2022-09-26T12:41:16.378Z,6.57
2022-09-26T12:43:43.012Z,7.97
2022-09-26T12:46:34.580Z,5.47
2022-09-26T12:49:29.076Z,4.93
2022-09-26T12:52:05.928Z,5.13
2022-09-26T12:54:53.875Z,5.72
2022-09-26T12:57:28.625Z,7.93
2022-09-26T13:00:13.852Z,8.20
2022-09-26T13:03:04.930Z,4.13
2022-09-26T13:05:45.951Z,5.50
2022-09-26T13:08:37.354Z,5.05
2022-09-26T13:11:17.806Z,8.00
2022-09-26T13:14:22.072Z,6.68
2022-09-26T13:17:10.659Z,6.43
2022-09-26T13:19:58.611Z,6.53
2022-09-26T13:22:41.107Z,5.57
2022-09-26T13:25:15.743Z,7.43
2022-09-26T13:27:48.226Z,3.90
2022-09-26T13:30:19.384Z,6.88
2022-09-26T13:32:58.735Z,12.23
2022-09-26T13:35:28.370Z,6.68
2022-09-26T13:38:13.794Z,6.90
2022-09-26T13:40:59.715Z,7.80
2022-09-26T13:43:51.329Z,4.65
2022-09-26T13:46:30.382Z,7.40
2022-09-26T13:49:16.762Z,7.97
2022-09-26T13:52:12.711Z,7.10
2022-09-26T13:54:53.881Z,4.57
2022-09-26T13:57:35.780Z,5.88
2022-09-26T14:00:28.508Z,7.95
2022-09-26T14:03:07.500Z,6.60
2022-09-26T14:05:43.447Z,6.53
2022-09-26T14:08:25.209Z,5.95
2022-09-26T14:11:06.743Z,6.55
2022-09-26T14:13:37.346Z,5.68
2022-09-26T14:16:25.153Z,9.13
2022-09-26T14:19:20.173Z,5.13
2022-09-26T14:22:05.225Z,6.40
2022-09-26T14:24:38.672Z,6.72
2022-09-26T14:27:11.351Z,6.75
2022-09-26T14:29:40.791Z,6.97
2022-09-26T14:32:07.366Z,7.80
2022-09-26T14:34:44.067Z,5.97
2022-09-26T14:37:22.916Z,8.13
2022-09-26T14:40:11.499Z,8.35
2022-09-26T14:42:46.686Z,9.00
2022-09-26T14:45:16.441Z,7.20
2022-09-26T14:47:54.447Z,7.57
2022-09-26T14:50:26.901Z,9.13
2022-09-26T14:52:59.594Z,10.23
2022-09-26T14:55:28.708Z,5.20
2022-09-26T14:58:16.039Z,4.65
2022-09-26T15:00:48.811Z,7.22
2022-09-26T15:03:19.479Z,3.78
2022-09-26T15:05:47.283Z,5.05
2022-09-26T15:08:30.198Z,4.55
2022-09-26T15:10:58.417Z,6.00
2022-09-26T15:13:39.210Z,4.38
2022-09-26T15:16:30.243Z,4.85
2022-09-26T15:19:22.134Z,7.13
2022-09-26T15:21:58.778Z,6.45
2022-09-26T15:24:29.368Z,5.95
2022-09-26T15:26:58.422Z,4.60
2022-09-26T15:29:25.564Z,5.85
2022-09-26T15:31:53.375Z,7.35
2022-09-26T15:34:34.990Z,8.00
2022-09-26T15:37:14.346Z,5.88
2022-09-26T15:39:41.869Z,4.90
2022-09-26T15:42:14.765Z,6.32
2022-09-26T15:44:53.969Z,5.03
2022-09-26T15:47:30.006Z,5.82
2022-09-26T15:50:12.906Z,8.00
2022-09-26T15:52:56.394Z,8.48
2022-09-26T15:55:26.345Z,4.50
2022-09-26T15:57:57.829Z,6.82
2022-09-26T16:00:24.642Z,6.38
2022-09-26T16:02:51.546Z,3.65
2022-09-26T16:05:21.142Z,5.70
2022-09-26T16:07:51.090Z,8.20
2022-09-26T16:10:25.602Z,8.05
2022-09-26T16:12:52.302Z,4.72
2022-09-26T16:15:23.545Z,8.82
2022-09-26T16:17:52.727Z,5.43
2022-09-26T16:20:19.390Z,8.35
2022-09-26T16:22:47.087Z,4.95
2022-09-26T16:25:50.632Z,6.72
2022-09-26T16:28:17.230Z,6.45
2022-09-26T16:30:50.716Z,6.25
2022-09-26T16:33:26.232Z,6.55
2022-09-26T16:35:53.088Z,7.60
2022-09-26T16:38:36.580Z,7.20
2022-09-26T16:41:07.385Z,6.25
2022-09-26T16:43:36.084Z,7.50
2022-09-26T16:46:12.213Z,7.95
2022-09-26T16:48:52.916Z,6.28
2022-09-26T16:51:27.397Z,16.88
2022-09-26T16:54:08.988Z,12.00
2022-09-26T16:56:40.061Z,12.30
2022-09-26T16:59:16.179Z,10.38
2022-09-26T17:01:44.382Z,11.23
2022-09-26T17:04:18.989Z,11.65
2022-09-26T17:06:47.315Z,12.40
2022-09-26T17:09:25.124Z,11.30
2022-09-26T17:11:53.137Z,9.88
2022-09-26T17:14:23.668Z,12.55
2022-09-26T17:16:51.885Z,5.40
2022-09-26T17:19:18.654Z,7.45
2022-09-26T17:21:45.458Z,10.55
2022-09-26T17:24:13.987Z,7.88
2022-09-26T17:26:43.986Z,9.88
2022-09-26T17:29:19.475Z,10.68
2022-09-26T17:31:46.546Z,9.60
2022-09-26T17:34:13.318Z,15.85
2022-09-26T17:36:46.569Z,11.18
2022-09-26T17:39:15.620Z,11.15
2022-09-26T17:41:42.344Z,10.88
2022-09-26T17:44:09.156Z,10.75
2022-09-26T17:46:37.259Z,10.30
2022-09-26T17:49:05.799Z,10.30
2022-09-26T17:51:33.257Z,13.45
2022-09-26T17:54:00.130Z,9.98
2022-09-26T17:56:27.109Z,15.82
2022-09-26T17:58:54.678Z,11.68
2022-09-26T18:01:30.621Z,9.45
2022-09-26T18:04:00.863Z,6.63
2022-09-26T18:06:30.178Z,8.30
2022-09-26T18:08:58.027Z,10.75
2022-09-26T18:11:24.812Z,9.85
2022-09-26T18:13:53.845Z,17.48
2022-09-26T18:16:23.829Z,9.93
2022-09-26T18:18:51.279Z,7.35
2022-09-26T18:21:18.955Z,8.77
2022-09-26T18:23:51.385Z,8.43
2022-09-26T18:26:28.790Z,10.20
2022-09-26T18:28:57.193Z,11.95
2022-09-26T18:31:30.698Z,11.23
2022-09-26T18:33:58.287Z,10.13
2022-09-26T18:36:25.619Z,7.03
2022-09-26T18:38:52.297Z,6.43
2022-09-26T18:41:20.740Z,8.00
2022-09-26T18:43:49.564Z,7.68
2022-09-26T18:46:17.071Z,7.82
2022-09-26T18:48:44.252Z,5.97
2022-09-26T18:51:11.637Z,6.93
2022-09-26T18:53:38.905Z,6.82
2022-09-26T18:56:06.565Z,9.20
2022-09-26T18:58:34.283Z,9.60
2022-09-26T19:01:21.274Z,9.15
2022-09-26T19:03:48.411Z,6.35
2022-09-26T19:06:17.292Z,5.10
2022-09-26T19:08:46.796Z,7.70
2022-09-26T19:11:18.822Z,11.88
2022-09-26T19:13:50.774Z,8.10
2022-09-26T19:16:18.439Z,7.72
2022-09-26T19:18:45.404Z,8.05
2022-09-26T19:21:30.415Z,6.97
2022-09-26T19:24:01.164Z,6.25
2022-09-26T19:26:34.812Z,6.28
2022-09-26T19:29:03.976Z,6.05
2022-09-26T19:31:30.856Z,6.40
2022-09-26T19:33:57.876Z,6.35
2022-09-26T19:36:24.620Z,5.68
2022-09-26T19:38:51.311Z,6.05
2022-09-26T19:41:17.997Z,6.35
2022-09-26T19:43:44.709Z,5.15
2022-09-26T19:46:24.964Z,5.82
2022-09-26T19:48:51.717Z,5.35
2022-09-26T19:51:18.519Z,5.22
2022-09-26T19:53:45.264Z,5.05
2022-09-26T19:56:12.022Z,6.68
2022-09-26T19:58:38.707Z,5.53
2022-09-26T20:01:17.633Z,6.25
2022-09-26T20:03:44.516Z,5.72
2022-09-26T20:06:14.192Z,7.78
2022-09-26T20:08:41.406Z,4.97
2022-09-26T20:11:08.181Z,5.93
2022-09-26T20:13:35.487Z,6.82
2022-09-26T20:16:02.496Z,6.05
2022-09-26T20:18:29.364Z,7.45
2022-09-26T20:20:57.515Z,6.30
2022-09-26T20:23:26.709Z,5.22
2022-09-26T20:25:55.593Z,8.65
2022-09-26T20:28:22.368Z,6.00
2022-09-26T20:30:49.127Z,5.00
2022-09-26T20:33:15.883Z,6.25
2022-09-26T20:35:45.859Z,6.18
2022-09-26T20:38:23.701Z,9.35
2022-09-26T20:40:50.439Z,5.93
2022-09-26T20:43:25.376Z,7.10
2022-09-26T20:45:52.153Z,4.53
2022-09-26T20:48:25.336Z,5.63
2022-09-26T20:50:52.048Z,8.60
2022-09-26T20:53:20.707Z,5.03
2022-09-26T20:55:48.276Z,5.72
2022-09-26T20:58:15.624Z,6.80
2022-09-26T21:00:43.488Z,4.15
2022-09-26T21:03:12.250Z,4.55
2022-09-26T21:05:39.191Z,4.30
2022-09-26T21:08:25.062Z,3.85
2022-09-26T21:10:51.771Z,6.78
2022-09-26T21:13:18.549Z,7.13
2022-09-26T21:15:45.231Z,4.40
2022-09-26T21:18:45.297Z,7.85
2022-09-26T21:21:26.651Z,5.43
2022-09-26T21:23:54.565Z,5.43
2022-09-26T21:26:24.160Z,5.78
2022-09-26T21:28:52.349Z,6.38
2022-09-26T21:31:31.710Z,4.45
2022-09-26T21:33:59.998Z,6.13
2022-09-26T21:36:35.479Z,6.05
2022-09-26T21:39:03.091Z,7.35
2022-09-26T21:41:29.974Z,4.53
2022-09-26T21:44:22.840Z,5.80
2022-09-26T21:46:50.620Z,7.78
2022-09-26T21:49:17.319Z,5.50
2022-09-26T21:51:45.801Z,6.40
2022-09-26T21:54:21.728Z,6.18
2022-09-26T21:56:54.780Z,6.75
2022-09-26T21:59:23.452Z,6.32
2022-09-26T22:01:51.646Z,4.93
2022-09-26T22:04:18.339Z,4.53
2022-09-26T22:06:45.105Z,4.93
2022-09-26T22:09:11.744Z,5.28
2022-09-26T22:11:38.461Z,6.00
2022-09-26T22:14:05.789Z,6.05
2022-09-26T22:16:32.981Z,3.97
2022-09-26T22:19:00.115Z,6.25
2022-09-26T22:21:27.018Z,7.97
2022-09-26T22:23:53.706Z,6.53
2022-09-26T22:26:20.617Z,6.65
2022-09-26T22:28:47.340Z,5.05
2022-09-26T22:31:14.105Z,4.47
2022-09-26T22:33:40.972Z,4.30
2022-09-26T22:36:08.378Z,3.33
2022-09-26T22:38:36.474Z,4.13
2022-09-26T22:41:06.064Z,5.43
2022-09-26T22:43:34.356Z,4.70
2022-09-26T22:46:19.867Z,5.78
2022-09-26T22:48:47.365Z,5.80
2022-09-26T22:51:15.585Z,3.47
2022-09-26T22:53:43.431Z,8.23
2022-09-26T22:56:14.542Z,3.67
2022-09-26T22:58:42.757Z,3.67
2022-09-26T23:01:12.226Z,6.85
2022-09-26T23:03:39.590Z,5.13
2022-09-26T23:06:07.574Z,4.07
2022-09-26T23:08:34.857Z,5.80
2022-09-26T23:11:02.741Z,4.90
2022-09-26T23:13:31.204Z,4.20
2022-09-26T23:16:09.357Z,6.53
2022-09-26T23:18:37.627Z,3.92
2022-09-26T23:21:09.319Z,5.85
2022-09-26T23:23:36.740Z,6.35
2022-09-26T23:26:05.765Z,5.90
2022-09-26T23:28:33.335Z,4.03
2022-09-26T23:31:07.821Z,4.13
2022-09-26T23:33:34.568Z,4.30
2022-09-26T23:36:01.949Z,4.00
2022-09-26T23:38:29.221Z,4.75
2022-09-26T23:40:56.011Z,2.90
2022-09-26T23:43:23.028Z,6.38
2022-09-26T23:45:49.891Z,4.53
2022-09-26T23:48:16.897Z,5.78
2022-09-26T23:50:45.437Z,4.82
2022-09-26T23:53:13.227Z,4.43
2022-09-26T23:55:39.919Z,4.18
2022-09-26T23:58:06.985Z,5.10
